sensor_id;sensor_type;location;lat;lon;timestamp;pressure;altitude;pressure_sealevel;temperature;humidity
39141;BME280;24875;48.436;10.298;2023-08-21T12:06:44;96768.56;;;33.60;63.64
39141;BME280;24875;48.436;10.298;2023-08-21T12:09:11;96774.44;;;33.19;61.31
39141;BME280;24875;48.436;10.298;2023-08-21T12:11:38;96775.63;;;33.26;62.46
39141;BME280;24875;48.436;10.298;2023-08-21T12:14:04;96764.44;;;33.49;63.58
39141;BME280;24875;48.436;10.298;2023-08-21T12:16:31;96763.66;;;33.36;65.29
39141;BME280;24875;48.436;10.298;2023-08-21T12:18:57;96758.53;;;33.21;62.67
39141;BME280;24875;48.436;10.298;2023-08-21T12:21:24;96756.75;;;33.03;63.83
39141;BME280;24875;48.436;10.298;2023-08-21T12:23:52;96759.63;;;33.33;63.08
39141;BME280;24875;48.436;10.298;2023-08-21T12:26:19;96749.91;;;33.27;63.91
39141;BME280;24875;48.436;10.298;2023-08-21T12:28:47;96751.59;;;33.15;64.40
39141;BME280;24875;48.436;10.298;2023-08-21T12:31:13;96748.50;;;33.30;63.27
39141;BME280;24875;48.436;10.298;2023-08-21T12:33:40;96751.03;;;33.26;64.38
39141;BME280;24875;48.436;10.298;2023-08-21T12:36:07;96753.31;;;33.59;62.64
39141;BME280;24875;48.436;10.298;2023-08-21T12:38:34;96751.19;;;33.56;61.70
39141;BME280;24875;48.436;10.298;2023-08-21T12:41:02;96743.03;;;33.30;59.21
39141;BME280;24875;48.436;10.298;2023-08-21T12:43:30;96746.44;;;33.35;65.75
39141;BME280;24875;48.436;10.298;2023-08-21T12:45:56;96735.72;;;33.52;58.38
39141;BME280;24875;48.436;10.298;2023-08-21T12:48:23;96740.94;;;33.62;60.41
39141;BME280;24875;48.436;10.298;2023-08-21T12:50:50;96742.88;;;33.48;62.84
39141;BME280;24875;48.436;10.298;2023-08-21T12:53:16;96742.63;;;33.71;66.88
39141;BME280;24875;48.436;10.298;2023-08-21T12:55:43;96737.78;;;33.90;61.74
39141;BME280;24875;48.436;10.298;2023-08-21T12:58:11;96731.69;;;33.93;61.47
39141;BME280;24875;48.436;10.298;2023-08-21T13:00:38;96729.25;;;33.92;63.81
39141;BME280;24875;48.436;10.298;2023-08-21T13:03:05;96726.34;;;33.66;59.55
39141;BME280;24875;48.436;10.298;2023-08-21T13:05:33;96726.41;;;33.97;58.55
39141;BME280;24875;48.436;10.298;2023-08-21T13:08:00;96719.38;;;34.34;56.44
39141;BME280;24875;48.436;10.298;2023-08-21T13:10:26;96721.13;;;34.61;54.21
39141;BME280;24875;48.436;10.298;2023-08-21T13:12:53;96720.47;;;34.25;56.63
39141;BME280;24875;48.436;10.298;2023-08-21T13:15:21;96717.88;;;34.20;60.92
39141;BME280;24875;48.436;10.298;2023-08-21T13:17:47;96716.75;;;33.99;57.64
39141;BME280;24875;48.436;10.298;2023-08-21T13:20:14;96707.44;;;34.30;60.21
39141;BME280;24875;48.436;10.298;2023-08-21T13:22:45;96710.84;;;34.66;60.87
39141;BME280;24875;48.436;10.298;2023-08-21T13:25:12;96702.19;;;34.81;54.35
39141;BME280;24875;48.436;10.298;2023-08-21T13:27:38;96702.94;;;34.26;55.95
39141;BME280;24875;48.436;10.298;2023-08-21T13:30:06;96708.22;;;34.53;54.74
39141;BME280;24875;48.436;10.298;2023-08-21T13:32:35;96705.41;;;34.44;58.27
39141;BME280;24875;48.436;10.298;2023-08-21T13:35:01;96701.03;;;34.04;59.39
39141;BME280;24875;48.436;10.298;2023-08-21T13:37:32;96694.16;;;33.94;58.04
39141;BME280;24875;48.436;10.298;2023-08-21T13:39:58;96699.66;;;33.72;58.20
39141;BME280;24875;48.436;10.298;2023-08-21T13:42:26;96697.63;;;33.55;57.91
39141;BME280;24875;48.436;10.298;2023-08-21T13:44:55;96698.75;;;33.19;60.19
39141;BME280;24875;48.436;10.298;2023-08-21T13:47:22;96692.19;;;33.07;62.66
39141;BME280;24875;48.436;10.298;2023-08-21T13:49:50;96692.38;;;33.24;61.49
39141;BME280;24875;48.436;10.298;2023-08-21T13:52:16;96696.06;;;33.06;61.91
39141;BME280;24875;48.436;10.298;2023-08-21T13:54:43;96690.44;;;33.24;63.33
39141;BME280;24875;48.436;10.298;2023-08-21T13:57:09;96686.78;;;33.50;62.37
39141;BME280;24875;48.436;10.298;2023-08-21T13:59:36;96680.47;;;33.85;64.29
39141;BME280;24875;48.436;10.298;2023-08-21T14:02:02;96684.84;;;33.95;59.78
39141;BME280;24875;48.436;10.298;2023-08-21T14:04:31;96678.50;;;34.38;61.22
39141;BME280;24875;48.436;10.298;2023-08-21T14:07:00;96677.19;;;34.65;61.71
39141;BME280;24875;48.436;10.298;2023-08-21T14:09:26;96676.03;;;34.50;57.60
39141;BME280;24875;48.436;10.298;2023-08-21T14:11:53;96676.75;;;34.89;57.73
39141;BME280;24875;48.436;10.298;2023-08-21T14:14:19;96673.22;;;34.88;61.43
39141;BME280;24875;48.436;10.298;2023-08-21T14:16:46;96670.28;;;34.85;59.10
39141;BME280;24875;48.436;10.298;2023-08-21T14:19:12;96670.72;;;35.42;54.13
39141;BME280;24875;48.436;10.298;2023-08-21T14:21:39;96668.91;;;35.72;54.98
39141;BME280;24875;48.436;10.298;2023-08-21T14:24:07;96669.69;;;36.06;50.93
39141;BME280;24875;48.436;10.298;2023-08-21T14:26:34;96677.00;;;35.51;55.25
39141;BME280;24875;48.436;10.298;2023-08-21T14:29:00;96674.25;;;35.01;54.84
39141;BME280;24875;48.436;10.298;2023-08-21T14:31:27;96668.72;;;34.45;57.50
39141;BME280;24875;48.436;10.298;2023-08-21T14:33:53;96680.06;;;35.16;54.56
39141;BME280;24875;48.436;10.298;2023-08-21T14:36:20;96667.34;;;35.54;53.54
39141;BME280;24875;48.436;10.298;2023-08-21T14:38:47;96666.38;;;35.58;53.33
39141;BME280;24875;48.436;10.298;2023-08-21T14:41:14;96661.78;;;35.96;58.13
39141;BME280;24875;48.436;10.298;2023-08-21T14:43:41;96662.28;;;36.06;55.79
39141;BME280;24875;48.436;10.298;2023-08-21T14:46:07;96659.63;;;36.18;56.58
39141;BME280;24875;48.436;10.298;2023-08-21T14:48:34;96659.72;;;36.76;52.07
39141;BME280;24875;48.436;10.298;2023-08-21T14:51:01;96657.19;;;37.00;49.76
39141;BME280;24875;48.436;10.298;2023-08-21T14:53:27;96656.97;;;36.84;49.07
39141;BME280;24875;48.436;10.298;2023-08-21T14:55:54;96645.97;;;36.76;52.90
39141;BME280;24875;48.436;10.298;2023-08-21T14:58:22;96654.47;;;37.40;50.62
39141;BME280;24875;48.436;10.298;2023-08-21T15:00:48;96648.66;;;37.13;54.24
39141;BME280;24875;48.436;10.298;2023-08-21T15:03:15;96643.97;;;36.93;51.25
39141;BME280;24875;48.436;10.298;2023-08-21T15:05:41;96648.44;;;37.26;51.13
39141;BME280;24875;48.436;10.298;2023-08-21T15:08:08;96650.59;;;37.41;51.72
39141;BME280;24875;48.436;10.298;2023-08-21T15:10:34;96648.75;;;37.98;48.60
39141;BME280;24875;48.436;10.298;2023-08-21T15:13:01;96647.78;;;38.14;48.22
39141;BME280;24875;48.436;10.298;2023-08-21T15:15:29;96649.41;;;38.39;49.39
39141;BME280;24875;48.436;10.298;2023-08-21T15:17:55;96645.44;;;38.04;49.73
39141;BME280;24875;48.436;10.298;2023-08-21T15:20:22;96647.94;;;36.75;50.71
39141;BME280;24875;48.436;10.298;2023-08-21T15:22:48;96649.75;;;35.63;52.83
39141;BME280;24875;48.436;10.298;2023-08-21T15:25:16;96646.81;;;36.76;50.85
39141;BME280;24875;48.436;10.298;2023-08-21T15:27:43;96645.34;;;36.79;50.99
39141;BME280;24875;48.436;10.298;2023-08-21T15:30:10;96646.13;;;36.05;52.97
39141;BME280;24875;48.436;10.298;2023-08-21T15:32:38;96645.91;;;36.64;53.73
39141;BME280;24875;48.436;10.298;2023-08-21T15:35:05;96641.47;;;35.97;52.68
39141;BME280;24875;48.436;10.298;2023-08-21T15:37:33;96639.91;;;35.37;55.25
39141;BME280;24875;48.436;10.298;2023-08-21T15:39:59;96634.81;;;34.63;56.85
39141;BME280;24875;48.436;10.298;2023-08-21T15:42:26;96628.91;;;34.39;54.17
39141;BME280;24875;48.436;10.298;2023-08-21T15:44:53;96625.22;;;34.05;54.15
39141;BME280;24875;48.436;10.298;2023-08-21T15:47:19;96622.53;;;33.83;56.87
39141;BME280;24875;48.436;10.298;2023-08-21T15:49:47;96620.63;;;33.92;56.98
39141;BME280;24875;48.436;10.298;2023-08-21T15:52:14;96620.09;;;33.82;57.39
39141;BME280;24875;48.436;10.298;2023-08-21T15:54:40;96616.34;;;33.69;58.23
39141;BME280;24875;48.436;10.298;2023-08-21T15:57:07;96615.47;;;33.38;57.72
39141;BME280;24875;48.436;10.298;2023-08-21T15:59:34;96616.09;;;33.36;57.79
39141;BME280;24875;48.436;10.298;2023-08-21T16:02:00;96614.56;;;33.21;57.90
39141;BME280;24875;48.436;10.298;2023-08-21T16:04:28;96614.59;;;33.08;56.82
39141;BME280;24875;48.436;10.298;2023-08-21T16:06:56;96611.75;;;33.56;56.02
39141;BME280;24875;48.436;10.298;2023-08-21T16:09:23;96606.50;;;33.46;56.35
39141;BME280;24875;48.436;10.298;2023-08-21T16:11:49;96604.53;;;33.60;56.88
39141;BME280;24875;48.436;10.298;2023-08-21T16:14:16;96610.81;;;34.13;56.98
39141;BME280;24875;48.436;10.298;2023-08-21T16:16:43;96607.03;;;35.45;57.40
39141;BME280;24875;48.436;10.298;2023-08-21T16:19:10;96596.84;;;35.29;57.08
39141;BME280;24875;48.436;10.298;2023-08-21T16:21:37;96613.13;;;34.92;55.83
39141;BME280;24875;48.436;10.298;2023-08-21T16:24:05;96608.47;;;34.45;54.58
39141;BME280;24875;48.436;10.298;2023-08-21T16:26:32;96608.16;;;34.00;57.31
39141;BME280;24875;48.436;10.298;2023-08-21T16:28:59;96605.03;;;33.40;58.02
39141;BME280;24875;48.436;10.298;2023-08-21T16:31:25;96608.81;;;33.31;58.75
39141;BME280;24875;48.436;10.298;2023-08-21T16:33:52;96610.56;;;33.05;59.47
39141;BME280;24875;48.436;10.298;2023-08-21T16:36:18;96602.03;;;33.07;60.52
39141;BME280;24875;48.436;10.298;2023-08-21T16:38:45;96599.25;;;32.85;61.89
39141;BME280;24875;48.436;10.298;2023-08-21T16:41:13;96603.97;;;32.44;63.47
39141;BME280;24875;48.436;10.298;2023-08-21T16:43:39;96602.25;;;32.48;64.06
39141;BME280;24875;48.436;10.298;2023-08-21T16:46:06;96614.91;;;32.17;64.81
39141;BME280;24875;48.436;10.298;2023-08-21T16:48:33;96611.06;;;32.45;64.90
39141;BME280;24875;48.436;10.298;2023-08-21T16:50:59;96604.19;;;32.96;64.27
39141;BME280;24875;48.436;10.298;2023-08-21T16:53:26;96606.56;;;33.77;61.52
39141;BME280;24875;48.436;10.298;2023-08-21T16:55:52;96605.56;;;34.42;60.24
39141;BME280;24875;48.436;10.298;2023-08-21T16:58:20;96609.19;;;35.86;56.83
39141;BME280;24875;48.436;10.298;2023-08-21T17:00:47;96619.09;;;36.90;53.98
39141;BME280;24875;48.436;10.298;2023-08-21T17:03:13;96607.53;;;37.78;51.17
39141;BME280;24875;48.436;10.298;2023-08-21T17:05:40;96606.00;;;38.12;51.05
39141;BME280;24875;48.436;10.298;2023-08-21T17:08:06;96602.94;;;37.49;51.68
39141;BME280;24875;48.436;10.298;2023-08-21T17:10:35;96604.78;;;38.22;49.78
39141;BME280;24875;48.436;10.298;2023-08-21T17:13:02;96597.22;;;38.66;49.62
39141;BME280;24875;48.436;10.298;2023-08-21T17:15:30;96600.41;;;38.33;50.38
39141;BME280;24875;48.436;10.298;2023-08-21T17:17:56;96605.50;;;37.66;51.53
39141;BME280;24875;48.436;10.298;2023-08-21T17:20:23;96599.81;;;37.39;54.27
39141;BME280;24875;48.436;10.298;2023-08-21T17:22:50;96609.13;;;36.77;55.57
39141;BME280;24875;48.436;10.298;2023-08-21T17:25:17;96601.34;;;35.42;58.62
39141;BME280;24875;48.436;10.298;2023-08-21T17:27:44;96599.03;;;34.60;61.06
39141;BME280;24875;48.436;10.298;2023-08-21T17:30:12;96598.94;;;33.96;60.73
39141;BME280;24875;48.436;10.298;2023-08-21T17:32:40;96601.91;;;33.34;65.27
39141;BME280;24875;48.436;10.298;2023-08-21T17:35:07;96588.81;;;32.65;66.85
39141;BME280;24875;48.436;10.298;2023-08-21T17:37:33;96595.19;;;32.20;69.16
39141;BME280;24875;48.436;10.298;2023-08-21T17:40:00;96599.59;;;31.90;71.79
39141;BME280;24875;48.436;10.298;2023-08-21T17:42:27;96601.28;;;31.59;76.07
39141;BME280;24875;48.436;10.298;2023-08-21T17:44:54;96585.38;;;31.34;78.50
39141;BME280;24875;48.436;10.298;2023-08-21T17:47:21;96592.25;;;31.13;82.34
39141;BME280;24875;48.436;10.298;2023-08-21T17:49:49;96596.38;;;30.92;84.96
39141;BME280;24875;48.436;10.298;2023-08-21T17:52:16;96603.28;;;30.67;87.36
39141;BME280;24875;48.436;10.298;2023-08-21T17:54:42;96601.75;;;30.61;90.03
39141;BME280;24875;48.436;10.298;2023-08-21T17:57:09;96606.88;;;30.44;97.69
39141;BME280;24875;48.436;10.298;2023-08-21T17:59:35;96609.56;;;30.20;100.00
39141;BME280;24875;48.436;10.298;2023-08-21T18:02:02;96611.16;;;30.03;100.00
39141;BME280;24875;48.436;10.298;2023-08-21T18:04:28;96603.19;;;29.83;100.00
39141;BME280;24875;48.436;10.298;2023-08-21T18:06:56;96605.56;;;29.66;100.00
39141;BME280;24875;48.436;10.298;2023-08-21T18:09:23;96611.84;;;29.29;100.00
39141;BME280;24875;48.436;10.298;2023-08-21T18:11:50;96612.84;;;29.09;100.00
39141;BME280;24875;48.436;10.298;2023-08-21T18:14:17;96605.25;;;29.11;100.00
39141;BME280;24875;48.436;10.298;2023-08-21T18:16:43;96605.31;;;29.01;100.00
39141;BME280;24875;48.436;10.298;2023-08-21T18:19:11;96603.03;;;28.70;100.00
39141;BME280;24875;48.436;10.298;2023-08-21T18:21:38;96604.47;;;28.63;100.00
39141;BME280;24875;48.436;10.298;2023-08-21T18:24:06;96616.44;;;28.57;100.00
39141;BME280;24875;48.436;10.298;2023-08-21T18:26:32;96619.00;;;28.33;100.00
39141;BME280;24875;48.436;10.298;2023-08-21T18:28:59;96616.84;;;28.31;100.00
39141;BME280;24875;48.436;10.298;2023-08-21T18:31:27;96626.88;;;28.30;100.00
39141;BME280;24875;48.436;10.298;2023-08-21T18:33:54;96627.41;;;28.32;100.00
39141;BME280;24875;48.436;10.298;2023-08-21T18:36:20;96620.44;;;28.16;100.00
39141;BME280;24875;48.436;10.298;2023-08-21T18:38:47;96635.88;;;28.11;100.00
39141;BME280;24875;48.436;10.298;2023-08-21T18:41:15;96629.63;;;28.10;100.00
39141;BME280;24875;48.436;10.298;2023-08-21T18:43:42;96630.69;;;28.14;100.00
39141;BME280;24875;48.436;10.298;2023-08-21T18:46:08;96639.41;;;28.06;100.00
39141;BME280;24875;48.436;10.298;2023-08-21T18:48:38;96642.91;;;28.12;100.00
39141;BME280;24875;48.436;10.298;2023-08-21T18:51:05;96643.75;;;28.02;100.00
39141;BME280;24875;48.436;10.298;2023-08-21T18:53:31;96642.91;;;28.12;100.00
39141;BME280;24875;48.436;10.298;2023-08-21T18:55:59;96645.38;;;28.03;100.00
39141;BME280;24875;48.436;10.298;2023-08-21T18:58:27;96646.19;;;28.09;100.00
39141;BME280;24875;48.436;10.298;2023-08-21T19:00:54;96647.25;;;28.08;100.00
39141;BME280;24875;48.436;10.298;2023-08-21T19:03:21;96651.06;;;28.07;100.00
39141;BME280;24875;48.436;10.298;2023-08-21T19:05:48;96659.75;;;28.04;100.00
39141;BME280;24875;48.436;10.298;2023-08-21T19:08:14;96652.47;;;27.94;100.00
39141;BME280;24875;48.436;10.298;2023-08-21T19:10:41;96654.91;;;27.86;100.00
39141;BME280;24875;48.436;10.298;2023-08-21T19:13:08;96652.47;;;27.94;100.00
39141;BME280;24875;48.436;10.298;2023-08-21T19:15:37;96662.44;;;28.04;100.00
39141;BME280;24875;48.436;10.298;2023-08-21T19:18:04;96658.19;;;27.88;100.00
39141;BME280;24875;48.436;10.298;2023-08-21T19:20:31;96666.31;;;27.73;100.00
39141;BME280;24875;48.436;10.298;2023-08-21T19:22:57;96660.63;;;27.69;100.00
39141;BME280;24875;48.436;10.298;2023-08-21T19:25:24;96659.81;;;27.49;100.00
39141;BME280;24875;48.436;10.298;2023-08-21T19:27:51;96658.47;;;27.42;100.00
39141;BME280;24875;48.436;10.298;2023-08-21T19:30:17;96657.13;;;27.39;100.00
39141;BME280;24875;48.436;10.298;2023-08-21T19:32:45;96654.16;;;27.46;100.00
39141;BME280;24875;48.436;10.298;2023-08-21T19:35:12;96657.69;;;27.16;100.00
39141;BME280;24875;48.436;10.298;2023-08-21T19:37:38;96646.28;;;27.14;100.00
39141;BME280;24875;48.436;10.298;2023-08-21T19:40:06;96647.94;;;27.15;100.00
39141;BME280;24875;48.436;10.298;2023-08-21T19:42:33;96645.75;;;27.08;100.00
39141;BME280;24875;48.436;10.298;2023-08-21T19:45:00;96648.41;;;26.93;100.00
39141;BME280;24875;48.436;10.298;2023-08-21T19:47:27;96651.97;;;26.98;100.00
39141;BME280;24875;48.436;10.298;2023-08-21T19:49:55;96650.81;;;26.84;100.00
39141;BME280;24875;48.436;10.298;2023-08-21T19:52:22;96645.69;;;26.78;100.00
39141;BME280;24875;48.436;10.298;2023-08-21T19:54:48;96649.50;;;26.92;100.00
39141;BME280;24875;48.436;10.298;2023-08-21T19:57:16;96646.75;;;26.82;100.00
39141;BME280;24875;48.436;10.298;2023-08-21T19:59:42;96651.34;;;26.66;100.00
39141;BME280;24875;48.436;10.298;2023-08-21T20:02:09;96660.78;;;26.64;100.00
39141;BME280;24875;48.436;10.298;2023-08-21T20:04:35;96654.59;;;26.63;100.00
39141;BME280;24875;48.436;10.298;2023-08-21T20:07:03;96651.09;;;26.78;100.00
39141;BME280;24875;48.436;10.298;2023-08-21T20:09:35;96660.28;;;26.67;100.00
39141;BME280;24875;48.436;10.298;2023-08-21T20:12:02;96665.13;;;26.70;100.00
39141;BME280;24875;48.436;10.298;2023-08-21T20:14:29;96663.22;;;26.65;100.00
39141;BME280;24875;48.436;10.298;2023-08-21T20:16:55;96673.78;;;26.67;100.00
39141;BME280;24875;48.436;10.298;2023-08-21T20:19:22;96664.84;;;26.66;100.00
39141;BME280;24875;48.436;10.298;2023-08-21T20:21:48;96664.84;;;26.66;100.00
39141;BME280;24875;48.436;10.298;2023-08-21T20:24:16;96670.00;;;26.73;100.00
39141;BME280;24875;48.436;10.298;2023-08-21T20:26:44;96668.34;;;26.52;100.00
39141;BME280;24875;48.436;10.298;2023-08-21T20:29:11;96663.47;;;26.49;100.00
39141;BME280;24875;48.436;10.298;2023-08-21T20:31:37;96670.72;;;26.43;100.00
39141;BME280;24875;48.436;10.298;2023-08-21T20:34:04;96662.06;;;26.37;100.00
39141;BME280;24875;48.436;10.298;2023-08-21T20:36:30;96663.34;;;26.24;100.00
39141;BME280;24875;48.436;10.298;2023-08-21T20:38:57;96677.66;;;26.20;100.00
39141;BME280;24875;48.436;10.298;2023-08-21T20:41:25;96673.59;;;26.22;100.00
39141;BME280;24875;48.436;10.298;2023-08-21T20:43:51;96673.28;;;26.14;100.00
39141;BME280;24875;48.436;10.298;2023-08-21T20:46:18;96670.91;;;26.22;100.00
39141;BME280;24875;48.436;10.298;2023-08-21T20:48:44;96667.94;;;26.24;100.00
39141;BME280;24875;48.436;10.298;2023-08-21T20:51:11;96668.66;;;26.04;100.00
39141;BME280;24875;48.436;10.298;2023-08-21T20:53:38;96669.22;;;26.11;100.00
39141;BME280;24875;48.436;10.298;2023-08-21T20:56:05;96668.94;;;26.13;100.00
39141;BME280;24875;48.436;10.298;2023-08-21T20:58:32;96666.03;;;26.24;100.00
39141;BME280;24875;48.436;10.298;2023-08-21T21:00:59;96670.00;;;26.07;100.00
39141;BME280;24875;48.436;10.298;2023-08-21T21:03:25;96665.16;;;26.09;100.00
39141;BME280;24875;48.436;10.298;2023-08-21T21:05:52;96664.09;;;26.10;100.00
39141;BME280;24875;48.436;10.298;2023-08-21T21:08:18;96654.56;;;25.97;100.00
39141;BME280;24875;48.436;10.298;2023-08-21T21:10:45;96657.22;;;25.92;100.00
39141;BME280;24875;48.436;10.298;2023-08-21T21:13:11;96649.97;;;25.98;100.00
39141;BME280;24875;48.436;10.298;2023-08-21T21:15:39;96653.53;;;26.03;100.00
39141;BME280;24875;48.436;10.298;2023-08-21T21:18:06;96660.50;;;25.94;100.00
39141;BME280;24875;48.436;10.298;2023-08-21T21:20:33;96666.44;;;25.96;100.00
39141;BME280;24875;48.436;10.298;2023-08-21T21:23:00;96663.91;;;25.80;100.00
39141;BME280;24875;48.436;10.298;2023-08-21T21:25:26;96660.56;;;25.68;100.00
39141;BME280;24875;48.436;10.298;2023-08-21T21:27:53;96661.59;;;25.62;100.00
39141;BME280;24875;48.436;10.298;2023-08-21T21:30:19;96658.38;;;25.60;100.00
39141;BME280;24875;48.436;10.298;2023-08-21T21:32:47;96666.31;;;25.72;100.00
39141;BME280;24875;48.436;10.298;2023-08-21T21:35:14;96658.13;;;25.67;100.00
39141;BME280;24875;48.436;10.298;2023-08-21T21:37:40;96653.78;;;25.61;100.00
39141;BME280;24875;48.436;10.298;2023-08-21T21:40:08;96651.75;;;25.73;100.00
39141;BME280;24875;48.436;10.298;2023-08-21T21:42:35;96654.63;;;25.66;100.00
39141;BME280;24875;48.436;10.298;2023-08-21T21:45:02;96643.00;;;25.66;100.00
39141;BME280;24875;48.436;10.298;2023-08-21T21:47:29;96650.81;;;25.62;100.00
39141;BME280;24875;48.436;10.298;2023-08-21T21:49:57;96649.47;;;25.65;100.00
39141;BME280;24875;48.436;10.298;2023-08-21T21:52:23;96649.66;;;25.48;100.00
39141;BME280;24875;48.436;10.298;2023-08-21T21:54:50;96658.19;;;25.35;100.00
39141;BME280;24875;48.436;10.298;2023-08-21T21:57:16;96657.94;;;25.37;100.00
39141;BME280;24875;48.436;10.298;2023-08-21T21:59:43;96646.53;;;25.30;100.00
39141;BME280;24875;48.436;10.298;2023-08-21T22:02:09;96649.94;;;25.16;100.00
39141;BME280;24875;48.436;10.298;2023-08-21T22:04:35;96641.81;;;25.11;100.00
39141;BME280;24875;48.436;10.298;2023-08-21T22:07:03;96644.16;;;25.33;100.00
39141;BME280;24875;48.436;10.298;2023-08-21T22:09:30;96642.97;;;25.19;100.00
39141;BME280;24875;48.436;10.298;2023-08-21T22:11:57;96643.72;;;25.15;100.00
39141;BME280;24875;48.436;10.298;2023-08-21T22:14:24;96644.75;;;25.09;100.00
39141;BME280;24875;48.436;10.298;2023-08-21T22:16:50;96645.75;;;25.03;100.00
39141;BME280;24875;48.436;10.298;2023-08-21T22:19:17;96641.94;;;24.99;100.00
39141;BME280;24875;48.436;10.298;2023-08-21T22:21:43;96648.91;;;24.95;100.00
39141;BME280;24875;48.436;10.298;2023-08-21T22:24:12;96639.56;;;25.03;100.00
39141;BME280;24875;48.436;10.298;2023-08-21T22:26:38;96638.13;;;24.95;100.00
39141;BME280;24875;48.436;10.298;2023-08-21T22:29:05;96636.81;;;24.98;100.00
39141;BME280;24875;48.436;10.298;2023-08-21T22:31:31;96639.09;;;24.84;100.00
39141;BME280;24875;48.436;10.298;2023-08-21T22:33:58;96633.22;;;24.87;100.00
39141;BME280;24875;48.436;10.298;2023-08-21T22:36:24;96631.00;;;24.84;100.00
39141;BME280;24875;48.436;10.298;2023-08-21T22:38:51;96630.91;;;24.74;100.00
39141;BME280;24875;48.436;10.298;2023-08-21T22:41:19;96625.63;;;24.84;100.00
39141;BME280;24875;48.436;10.298;2023-08-21T22:43:45;96616.59;;;24.69;100.00
39141;BME280;24875;48.436;10.298;2023-08-21T22:46:12;96622.00;;;24.48;100.00
39141;BME280;24875;48.436;10.298;2023-08-21T22:48:38;96621.06;;;24.37;100.00
39141;BME280;24875;48.436;10.298;2023-08-21T22:51:05;96612.72;;;24.60;100.00
39141;BME280;24875;48.436;10.298;2023-08-21T22:53:32;96611.09;;;24.59;100.00
39141;BME280;24875;48.436;10.298;2023-08-21T22:55:58;96610.75;;;24.51;100.00
39141;BME280;24875;48.436;10.298;2023-08-21T22:58:26;96607.03;;;24.56;100.00
39141;BME280;24875;48.436;10.298;2023-08-21T23:00:55;96610.94;;;24.70;100.00
39141;BME280;24875;48.436;10.298;2023-08-21T23:03:21;96615.94;;;24.36;100.00
39141;BME280;24875;48.436;10.298;2023-08-21T23:05:52;96618.25;;;24.49;100.00
39141;BME280;24875;48.436;10.298;2023-08-21T23:08:19;96616.47;;;24.33;100.00
39141;BME280;24875;48.436;10.298;2023-08-21T23:10:45;96618.63;;;24.36;100.00
39141;BME280;24875;48.436;10.298;2023-08-21T23:13:12;96626.13;;;24.29;100.00
39141;BME280;24875;48.436;10.298;2023-08-21T23:15:44;96617.00;;;24.56;100.00
39141;BME280;24875;48.436;10.298;2023-08-21T23:18:11;96626.19;;;24.34;100.00
39141;BME280;24875;48.436;10.298;2023-08-21T23:20:38;96618.25;;;24.27;100.00
39141;BME280;24875;48.436;10.298;2023-08-21T23:23:05;96620.09;;;24.22;100.00
39141;BME280;24875;48.436;10.298;2023-08-21T23:25:32;96617.34;;;24.17;100.00
39141;BME280;24875;48.436;10.298;2023-08-21T23:27:58;96615.69;;;24.16;100.00
39141;BME280;24875;48.436;10.298;2023-08-21T23:30:25;96613.47;;;24.08;100.00
39141;BME280;24875;48.436;10.298;2023-08-21T23:32:53;96616.78;;;24.15;100.00
39141;BME280;24875;48.436;10.298;2023-08-21T23:35:19;96616.03;;;23.98;100.00
39141;BME280;24875;48.436;10.298;2023-08-21T23:37:46;96615.66;;;23.90;100.00
39141;BME280;24875;48.436;10.298;2023-08-21T23:40:13;96615.66;;;23.90;100.00
39141;BME280;24875;48.436;10.298;2023-08-21T23:42:41;96614.97;;;23.99;100.00
39141;BME280;24875;48.436;10.298;2023-08-21T23:45:09;96613.97;;;24.05;100.00
39141;BME280;24875;48.436;10.298;2023-08-21T23:47:36;96609.97;;;23.86;100.00
39141;BME280;24875;48.436;10.298;2023-08-21T23:50:06;96610.16;;;24.01;100.00
39141;BME280;24875;48.436;10.298;2023-08-21T23:52:32;96611.16;;;23.95;100.00
39141;BME280;24875;48.436;10.298;2023-08-21T23:54:59;96611.91;;;23.91;100.00
39141;BME280;24875;48.436;10.298;2023-08-21T23:57:25;96614.53;;;23.86;100.00
39141;BME280;24875;48.436;10.298;2023-08-21T23:59:52;96622.22;;;23.77;100.00
